Time,TemperatureF,DewpointF,PressureIn,WindDirection,WindDirectionDegrees,WindSpeedMPH,WindSpeedGustMPH,Humidity,HourlyPrecipIn,Conditions,Clouds,dailyrainin,SoftwareType,DateUTC
2013-05-07 00:00:00,64.0,-99.9,29.96,WNW,290,6.0,-999.0,-999,-99.99,,,-99.99,,2013-05-07 05:00:00,
2013-05-07 00:22:00,65.0,-99.9,29.97,WNW,300,8.0,-999.0,-999,-99.99,,,-99.99,,2013-05-07 05:22:00,
2013-05-07 00:30:00,64.0,-99.9,29.97,WNW,300,7.0,-999.0,-999,-99.99,,,-99.99,,2013-05-07 05:30:00,
2013-05-07 00:43:00,64.0,-99.9,29.96,WNW,290,6.0,-999.0,-999,-99.99,,,-99.99,,2013-05-07 05:43:00,
2013-05-07 00:52:00,64.0,-99.9,29.96,WNW,290,6.0,-999.0,-999,-99.99,,,-99.99,,2013-05-07 05:52:00,
2013-05-07 01:00:00,64.0,-99.9,29.96,WNW,300,10.0,-999.0,-999,-99.99,,,-99.99,,2013-05-07 06:00:00,
2013-05-07 01:22:00,64.0,-99.9,29.97,WNW,300,7.0,-999.0,-999,-99.99,,,-99.99,,2013-05-07 06:22:00,
2013-05-07 01:30:00,63.0,-99.9,29.96,WNW,300,11.0,-999.0,-999,-99.99,,,-99.99,,2013-05-07 06:30:00,
2013-05-07 01:52:00,64.0,-99.9,29.96,WNW,300,10.0,-999.0,-999,-99.99,,,-99.99,,2013-05-07 06:52:00,
2013-05-07 02:00:00,63.0,-99.9,29.95,WNW,300,11.0,-999.0,-999,-99.99,,,-99.99,,2013-05-07 07:00:00,
2013-05-07 02:22:00,63.0,-99.9,29.96,WNW,300,11.0,-999.0,-999,-99.99,,,-99.99,,2013-05-07 07:22:00,
2013-05-07 02:30:00,62.0,-99.9,29.95,WNW,290,15.0,-999.0,-999,-99.99,,,-99.99,,2013-05-07 07:30:00,
2013-05-07 02:53:00,63.0,-99.9,29.95,WNW,300,11.0,-999.0,-999,-99.99,,,-99.99,,2013-05-07 07:53:00,
2013-05-07 03:00:00,62.0,-99.9,29.95,WNW,290,14.0,-999.0,-999,-99.99,,,-99.99,,2013-05-07 08:00:00,
2013-05-07 03:11:00,62.0,-99.9,29.95,WNW,290,15.0,-999.0,-999,-99.99,,,-99.99,,2013-05-07 08:11:00,
2013-05-07 03:22:00,62.0,-99.9,29.95,WNW,290,15.0,-999.0,-999,-99.99,,,-99.99,,2013-05-07 08:22:00,
2013-05-07 03:30:00,62.0,-99.9,29.95,WNW,300,15.0,-999.0,-999,-99.99,,,-99.99,,2013-05-07 08:30:00,
2013-05-07 03:52:00,62.0,-99.9,29.95,WNW,290,14.0,-999.0,-999,-99.99,,,-99.99,,2013-05-07 08:52:00,
2013-05-07 04:00:00,62.0,-99.9,29.96,WNW,300,15.0,-999.0,-999,-99.99,,,-99.99,,2013-05-07 09:00:00,
2013-05-07 04:23:00,62.0,-99.9,29.95,WNW,300,15.0,-999.0,-999,-99.99,,,-99.99,,2013-05-07 09:23:00,
2013-05-07 04:30:00,62.0,-99.9,29.96,WNW,300,13.0,-999.0,-999,-99.99,,,-99.99,,2013-05-07 09:30:00,
2013-05-07 04:53:00,62.0,-99.9,29.96,WNW,300,15.0,-999.0,-999,-99.99,,,-99.99,,2013-05-07 09:53:00,
2013-05-07 05:00:00,62.0,-99.9,29.96,WNW,300,13.0,-999.0,-999,-99.99,,,-99.99,,2013-05-07 10:00:00,
2013-05-07 05:23:00,62.0,-99.9,29.96,WNW,300,13.0,-999.0,-999,-99.99,,,-99.99,,2013-05-07 10:23:00,
2013-05-07 05:30:00,62.0,-99.9,29.97,West,280,13.0,-999.0,-999,-99.99,,,-99.99,,2013-05-07 10:30:00,
2013-05-07 05:52:00,62.0,-99.9,29.96,WNW,300,13.0,-999.0,-999,-99.99,,,-99.99,,2013-05-07 10:52:00,
2013-05-07 06:00:00,62.0,-99.9,29.98,WNW,290,13.0,-999.0,-999,-99.99,,,-99.99,,2013-05-07 11:00:00,
2013-05-07 06:22:00,62.0,-99.9,29.97,West,280,13.0,-999.0,-999,-99.99,,,-99.99,,2013-05-07 11:22:00,
2013-05-07 06:30:00,63.0,-99.9,29.99,WNW,300,13.0,-999.0,-999,-99.99,,,-99.99,,2013-05-07 11:30:00,
2013-05-07 06:52:00,62.0,-99.9,29.98,WNW,290,13.0,-999.0,-999,-99.99,,,-99.99,,2013-05-07 11:52:00,
2013-05-07 07:00:00,63.0,-99.9,30.00,WNW,290,11.0,-999.0,-999,-99.99,,,-99.99,,2013-05-07 12:00:00,
2013-05-07 07:22:00,63.0,-99.9,29.99,WNW,300,13.0,-999.0,-999,-99.99,,,-99.99,,2013-05-07 12:22:00,
2013-05-07 07:30:00,64.0,-99.9,30.01,WNW,290,10.0,-999.0,-999,-99.99,,,-99.99,,2013-05-07 12:30:00,
2013-05-07 07:52:00,63.0,-99.9,30.00,WNW,290,11.0,-999.0,-999,-99.99,,,-99.99,,2013-05-07 12:52:00,
2013-05-07 08:00:00,65.0,-99.9,30.02,WNW,300,10.0,-999.0,-999,-99.99,,,-99.99,,2013-05-07 13:00:00,
2013-05-07 08:22:00,64.0,-99.9,30.01,WNW,290,10.0,-999.0,-999,-99.99,,,-99.99,,2013-05-07 13:22:00,
2013-05-07 08:30:00,66.0,-99.9,30.02,WNW,300,10.0,-999.0,-999,-99.99,,,-99.99,,2013-05-07 13:30:00,
2013-05-07 08:42:00,65.0,-99.9,30.02,WNW,300,10.0,-999.0,-999,-99.99,,,-99.99,,2013-05-07 13:42:00,
2013-05-07 08:52:00,65.0,-99.9,30.02,WNW,300,10.0,-999.0,-999,-99.99,,,-99.99,,2013-05-07 13:52:00,
2013-05-07 09:00:00,67.0,-99.9,30.03,NW,320,9.0,-999.0,-999,-99.99,,,-99.99,,2013-05-07 14:00:00,
2013-05-07 09:11:00,66.0,-99.9,30.02,WNW,300,10.0,-999.0,-999,-99.99,,,-99.99,,2013-05-07 14:11:00,
2013-05-07 09:22:00,66.0,-99.9,30.02,WNW,300,10.0,-999.0,-999,-99.99,,,-99.99,,2013-05-07 14:22:00,
2013-05-07 09:30:00,68.0,-99.9,30.02,NW,310,7.0,-999.0,-999,-99.99,,,-99.99,,2013-05-07 14:30:00,
2013-05-07 09:52:00,67.0,-99.9,30.03,NW,320,9.0,-999.0,-999,-99.99,,,-99.99,,2013-05-07 14:52:00,
2013-05-07 10:00:00,69.0,-99.9,30.03,NW,320,6.0,-999.0,-999,-99.99,,,-99.99,,2013-05-07 15:00:00,
2013-05-07 10:22:00,68.0,-99.9,30.02,NW,310,7.0,-999.0,-999,-99.99,,,-99.99,,2013-05-07 15:22:00,
2013-05-07 10:30:00,69.0,-99.9,30.03,North,0,0.0,-999.0,-999,-99.99,,,-99.99,,2013-05-07 15:30:00,
2013-05-07 10:53:00,69.0,-99.9,30.03,NW,320,6.0,-999.0,-999,-99.99,,,-99.99,,2013-05-07 15:53:00,
2013-05-07 11:00:00,67.0,-99.9,30.02,ESE,110,2.0,-999.0,-999,-99.99,,,-99.99,,2013-05-07 16:00:00,
2013-05-07 11:22:00,69.0,-99.9,30.03,North,0,0.0,-999.0,-999,-99.99,,,-99.99,,2013-05-07 16:22:00,
2013-05-07 11:30:00,66.0,-99.9,30.02,SE,140,7.0,-999.0,-999,-99.99,,,-99.99,,2013-05-07 16:30:00,
2013-05-07 11:52:00,67.0,-99.9,30.02,ESE,110,2.0,-999.0,-999,-99.99,,,-99.99,,2013-05-07 16:52:00,
2013-05-07 12:00:00,66.0,-99.9,30.02,SSE,150,10.0,-999.0,-999,-99.99,,,-99.99,,2013-05-07 17:00:00,
2013-05-07 12:22:00,66.0,-99.9,30.02,SE,140,7.0,-999.0,-999,-99.99,,,-99.99,,2013-05-07 17:22:00,
2013-05-07 12:30:00,67.0,-99.9,30.01,South,190,11.0,-999.0,-999,-99.99,,,-99.99,,2013-05-07 17:30:00,
2013-05-07 12:53:00,66.0,-99.9,30.02,SSE,150,10.0,-999.0,-999,-99.99,,,-99.99,,2013-05-07 17:53:00,
2013-05-07 13:00:00,67.0,-99.9,30.00,SSW,200,15.0,-999.0,-999,-99.99,,,-99.99,,2013-05-07 18:00:00,
2013-05-07 13:21:00,67.0,-99.9,30.01,South,190,11.0,-999.0,-999,-99.99,,,-99.99,,2013-05-07 18:21:00,
2013-05-07 13:30:00,68.0,-99.9,30.00,SSW,200,18.0,-999.0,-999,-99.99,,,-99.99,,2013-05-07 18:30:00,
2013-05-07 13:52:00,67.0,-99.9,30.00,SSW,200,15.0,-999.0,-999,-99.99,,,-99.99,,2013-05-07 18:52:00,
2013-05-07 14:00:00,68.0,-99.9,30.00,SSW,200,18.0,-999.0,-999,-99.99,,,-99.99,,2013-05-07 19:00:00,
2013-05-07 14:22:00,68.0,-99.9,30.00,SSW,200,18.0,-999.0,-999,-99.99,,,-99.99,,2013-05-07 19:22:00,
2013-05-07 14:30:00,68.0,-99.9,29.99,SSW,200,16.0,-999.0,-999,-99.99,,,-99.99,,2013-05-07 19:30:00,
2013-05-07 14:52:00,68.0,-99.9,30.00,SSW,200,18.0,-999.0,-999,-99.99,,,-99.99,,2013-05-07 19:52:00,
2013-05-07 15:00:00,69.0,-99.9,29.98,SSW,210,20.0,-999.0,-999,-99.99,,,-99.99,,2013-05-07 20:00:00,
2013-05-07 15:12:00,68.0,-99.9,29.99,SSW,200,16.0,-999.0,-999,-99.99,,,-99.99,,2013-05-07 20:12:00,
2013-05-07 15:22:00,68.0,-99.9,29.99,SSW,200,16.0,-999.0,-999,-99.99,,,-99.99,,2013-05-07 20:22:00,
2013-05-07 15:30:00,69.0,-99.9,29.98,SSW,210,18.0,-999.0,-999,-99.99,,,-99.99,,2013-05-07 20:30:00,
2013-05-07 15:52:00,69.0,-99.9,29.98,SSW,210,20.0,-999.0,-999,-99.99,,,-99.99,,2013-05-07 20:52:00,
2013-05-07 16:00:00,69.0,-99.9,29.98,SSW,210,18.0,-999.0,-999,-99.99,,,-99.99,,2013-05-07 21:00:00,
2013-05-07 16:11:00,69.0,-99.9,29.98,SSW,210,18.0,-999.0,-999,-99.99,,,-99.99,,2013-05-07 21:11:00,
2013-05-07 16:22:00,69.0,-99.9,29.98,SSW,210,18.0,-999.0,-999,-99.99,,,-99.99,,2013-05-07 21:22:00,
2013-05-07 16:30:00,69.0,-99.9,29.98,SSW,210,18.0,-999.0,-999,-99.99,,,-99.99,,2013-05-07 21:30:00,
2013-05-07 16:53:00,69.0,-99.9,29.98,SSW,210,18.0,-999.0,-999,-99.99,,,-99.99,,2013-05-07 21:53:00,
2013-05-07 17:00:00,69.0,-99.9,29.97,SW,220,16.0,-999.0,-999,-99.99,,,-99.99,,2013-05-07 22:00:00,
2013-05-07 17:13:00,69.0,-99.9,29.98,SSW,210,18.0,-999.0,-999,-99.99,,,-99.99,,2013-05-07 22:13:00,
2013-05-07 17:23:00,69.0,-99.9,29.98,SSW,210,18.0,-999.0,-999,-99.99,,,-99.99,,2013-05-07 22:23:00,
2013-05-07 17:30:00,70.0,-99.9,29.97,SW,220,13.0,-999.0,-999,-99.99,,,-99.99,,2013-05-07 22:30:00,
2013-05-07 17:42:00,69.0,-99.9,29.97,SW,220,16.0,-999.0,-999,-99.99,,,-99.99,,2013-05-07 22:42:00,
2013-05-07 17:52:00,69.0,-99.9,29.97,SW,220,16.0,-999.0,-999,-99.99,,,-99.99,,2013-05-07 22:52:00,
2013-05-07 18:00:00,69.0,-99.9,29.97,SW,230,17.0,-999.0,-999,-99.99,,,-99.99,,2013-05-07 23:00:00,
2013-05-07 18:12:00,70.0,-99.9,29.97,SW,220,13.0,-999.0,-999,-99.99,,,-99.99,,2013-05-07 23:12:00,
2013-05-07 18:22:00,70.0,-99.9,29.97,SW,220,13.0,-999.0,-999,-99.99,,,-99.99,,2013-05-07 23:22:00,
2013-05-07 18:30:00,69.0,-99.9,29.97,SW,230,16.0,-999.0,-999,-99.99,,,-99.99,,2013-05-07 23:30:00,
2013-05-07 18:52:00,69.0,-99.9,29.97,SW,230,17.0,-999.0,-999,-99.99,,,-99.99,,2013-05-07 23:52:00,
2013-05-07 19:00:00,69.0,-99.9,29.98,WSW,240,15.0,-999.0,-999,-99.99,,,-99.99,,2013-05-08 00:00:00,
2013-05-07 19:12:00,69.0,-99.9,29.97,SW,230,16.0,-999.0,-999,-99.99,,,-99.99,,2013-05-08 00:12:00,
2013-05-07 19:22:00,69.0,-99.9,29.97,SW,230,16.0,-999.0,-999,-99.99,,,-99.99,,2013-05-08 00:22:00,
2013-05-07 19:30:00,69.0,-99.9,29.99,WSW,240,14.0,-999.0,-999,-99.99,,,-99.99,,2013-05-08 00:30:00,
2013-05-07 19:42:00,69.0,-99.9,29.98,WSW,240,15.0,-999.0,-999,-99.99,,,-99.99,,2013-05-08 00:42:00,
2013-05-07 19:52:00,69.0,-99.9,29.98,WSW,240,15.0,-999.0,-999,-99.99,,,-99.99,,2013-05-08 00:52:00,
2013-05-07 20:00:00,68.0,-99.9,29.99,WSW,240,13.0,-999.0,-999,-99.99,,,-99.99,,2013-05-08 01:00:00,
2013-05-07 20:12:00,69.0,-99.9,29.99,WSW,240,14.0,-999.0,-999,-99.99,,,-99.99,,2013-05-08 01:12:00,
2013-05-07 20:22:00,69.0,-99.9,29.99,WSW,240,14.0,-999.0,-999,-99.99,,,-99.99,,2013-05-08 01:22:00,
2013-05-07 20:30:00,68.0,-99.9,30.00,SW,230,11.0,-999.0,-999,-99.99,,,-99.99,,2013-05-08 01:30:00,
2013-05-07 20:52:00,68.0,-99.9,29.99,WSW,240,13.0,-999.0,-999,-99.99,,,-99.99,,2013-05-08 01:52:00,
2013-05-07 21:00:00,68.0,-99.9,30.01,SW,230,9.0,-999.0,-999,-99.99,,,-99.99,,2013-05-08 02:00:00,
2013-05-07 21:22:00,68.0,-99.9,30.00,SW,230,11.0,-999.0,-999,-99.99,,,-99.99,,2013-05-08 02:22:00,
2013-05-07 21:30:00,68.0,-99.9,30.02,SW,230,9.0,-999.0,-999,-99.99,,,-99.99,,2013-05-08 02:30:00,
2013-05-07 21:52:00,68.0,-99.9,30.01,SW,230,9.0,-999.0,-999,-99.99,,,-99.99,,2013-05-08 02:52:00,
2013-05-07 22:00:00,68.0,-99.9,30.02,WSW,240,10.0,-999.0,-999,-99.99,,,-99.99,,2013-05-08 03:00:00,
2013-05-07 22:12:00,68.0,-99.9,30.02,SW,230,9.0,-999.0,-999,-99.99,,,-99.99,,2013-05-08 03:12:00,
2013-05-07 22:22:00,68.0,-99.9,30.02,SW,230,9.0,-999.0,-999,-99.99,,,-99.99,,2013-05-08 03:22:00,
2013-05-07 22:30:00,68.0,-99.9,30.03,WSW,240,9.0,-999.0,-999,-99.99,,,-99.99,,2013-05-08 03:30:00,
2013-05-07 22:53:00,68.0,-99.9,30.02,WSW,240,10.0,-999.0,-999,-99.99,,,-99.99,,2013-05-08 03:53:00,
2013-05-07 23:00:00,68.0,-99.9,30.03,SW,230,8.0,-999.0,-999,-99.99,,,-99.99,,2013-05-08 04:00:00,
2013-05-07 23:13:00,68.0,-99.9,30.03,WSW,240,9.0,-999.0,-999,-99.99,,,-99.99,,2013-05-08 04:13:00,
2013-05-07 23:23:00,68.0,-99.9,30.03,WSW,240,9.0,-999.0,-999,-99.99,,,-99.99,,2013-05-08 04:23:00,
2013-05-07 23:30:00,67.0,-99.9,30.03,SW,230,7.0,-999.0,-999,-99.99,,,-99.99,,2013-05-08 04:30:00,
2013-05-07 23:43:00,68.0,-99.9,30.03,SW,230,8.0,-999.0,-999,-99.99,,,-99.99,,2013-05-08 04:43:00,
2013-05-07 23:53:00,68.0,-99.9,30.03,SW,230,8.0,-999.0,-999,-99.99,,,-99.99,,2013-05-08 04:53:00,